sensor_id;sensor_type;location;lat;lon;timestamp;temperature;humidity
3348;DHT22;1687;49.540;8.574;2023-07-24T00:01:44;23.20;52.10
3348;DHT22;1687;49.540;8.574;2023-07-24T00:04:10;23.10;52.00
3348;DHT22;1687;49.540;8.574;2023-07-24T00:06:36;23.10;52.30
3348;DHT22;1687;49.540;8.574;2023-07-24T00:09:01;23.10;52.30
3348;DHT22;1687;49.540;8.574;2023-07-24T00:11:27;23.00;52.30
3348;DHT22;1687;49.540;8.574;2023-07-24T00:13:53;23.00;52.40
3348;DHT22;1687;49.540;8.574;2023-07-24T00:16:18;22.90;52.40
3348;DHT22;1687;49.540;8.574;2023-07-24T00:18:44;22.90;52.50
3348;DHT22;1687;49.540;8.574;2023-07-24T00:21:10;22.80;52.60
3348;DHT22;1687;49.540;8.574;2023-07-24T00:23:36;22.80;52.70
3348;DHT22;1687;49.540;8.574;2023-07-24T00:26:02;22.70;52.70
3348;DHT22;1687;49.540;8.574;2023-07-24T00:28:27;22.80;52.90
3348;DHT22;1687;49.540;8.574;2023-07-24T00:30:53;22.80;52.90
3348;DHT22;1687;49.540;8.574;2023-07-24T00:33:19;22.70;52.80
3348;DHT22;1687;49.540;8.574;2023-07-24T00:35:44;22.70;52.90
3348;DHT22;1687;49.540;8.574;2023-07-24T00:38:10;22.70;53.00
3348;DHT22;1687;49.540;8.574;2023-07-24T00:40:35;22.70;53.10
3348;DHT22;1687;49.540;8.574;2023-07-24T00:43:01;22.70;53.00
3348;DHT22;1687;49.540;8.574;2023-07-24T00:45:27;22.60;53.00
3348;DHT22;1687;49.540;8.574;2023-07-24T00:47:52;22.50;53.10
3348;DHT22;1687;49.540;8.574;2023-07-24T00:50:19;22.40;53.30
3348;DHT22;1687;49.540;8.574;2023-07-24T00:52:44;22.40;53.30
3348;DHT22;1687;49.540;8.574;2023-07-24T00:55:12;22.40;53.30
3348;DHT22;1687;49.540;8.574;2023-07-24T00:57:39;22.40;53.40
3348;DHT22;1687;49.540;8.574;2023-07-24T01:00:06;22.40;53.50
3348;DHT22;1687;49.540;8.574;2023-07-24T01:02:32;22.40;53.50
3348;DHT22;1687;49.540;8.574;2023-07-24T01:04:58;22.40;53.60
3348;DHT22;1687;49.540;8.574;2023-07-24T01:07:25;22.40;53.60
3348;DHT22;1687;49.540;8.574;2023-07-24T01:09:50;22.30;54.20
3348;DHT22;1687;49.540;8.574;2023-07-24T01:12:39;22.30;54.40
3348;DHT22;1687;49.540;8.574;2023-07-24T01:15:14;22.30;53.80
3348;DHT22;1687;49.540;8.574;2023-07-24T01:17:48;22.30;54.00
3348;DHT22;1687;49.540;8.574;2023-07-24T01:20:17;22.30;54.00
3348;DHT22;1687;49.540;8.574;2023-07-24T01:23:44;22.30;54.10
3348;DHT22;1687;49.540;8.574;2023-07-24T01:28:19;22.20;54.30
3348;DHT22;1687;49.540;8.574;2023-07-24T01:30:44;22.20;54.20
3348;DHT22;1687;49.540;8.574;2023-07-24T01:33:10;22.20;54.30
3348;DHT22;1687;49.540;8.574;2023-07-24T01:35:36;22.20;54.40
3348;DHT22;1687;49.540;8.574;2023-07-24T01:38:04;22.20;54.50
3348;DHT22;1687;49.540;8.574;2023-07-24T01:40:30;22.30;54.60
3348;DHT22;1687;49.540;8.574;2023-07-24T01:42:56;22.30;54.60
3348;DHT22;1687;49.540;8.574;2023-07-24T01:45:24;22.30;54.50
3348;DHT22;1687;49.540;8.574;2023-07-24T01:47:50;22.30;54.60
3348;DHT22;1687;49.540;8.574;2023-07-24T01:50:16;22.20;54.60
3348;DHT22;1687;49.540;8.574;2023-07-24T01:52:41;22.20;54.60
3348;DHT22;1687;49.540;8.574;2023-07-24T01:55:07;22.20;54.80
3348;DHT22;1687;49.540;8.574;2023-07-24T01:57:34;22.30;54.90
3348;DHT22;1687;49.540;8.574;2023-07-24T02:00:00;22.30;55.00
3348;DHT22;1687;49.540;8.574;2023-07-24T02:02:25;22.30;54.90
3348;DHT22;1687;49.540;8.574;2023-07-24T02:04:51;22.30;54.90
3348;DHT22;1687;49.540;8.574;2023-07-24T02:07:17;22.20;55.00
3348;DHT22;1687;49.540;8.574;2023-07-24T02:09:42;22.20;55.10
3348;DHT22;1687;49.540;8.574;2023-07-24T02:12:08;22.20;55.10
3348;DHT22;1687;49.540;8.574;2023-07-24T02:14:34;22.10;55.10
3348;DHT22;1687;49.540;8.574;2023-07-24T02:16:59;22.00;55.40
3348;DHT22;1687;49.540;8.574;2023-07-24T02:19:25;21.90;55.30
3348;DHT22;1687;49.540;8.574;2023-07-24T02:21:51;21.80;55.40
3348;DHT22;1687;49.540;8.574;2023-07-24T02:24:16;21.80;55.70
3348;DHT22;1687;49.540;8.574;2023-07-24T02:26:42;21.80;55.70
3348;DHT22;1687;49.540;8.574;2023-07-24T02:29:08;21.70;55.80
3348;DHT22;1687;49.540;8.574;2023-07-24T02:31:34;21.70;56.00
3348;DHT22;1687;49.540;8.574;2023-07-24T02:33:59;21.70;56.10
3348;DHT22;1687;49.540;8.574;2023-07-24T02:36:25;21.70;56.30
3348;DHT22;1687;49.540;8.574;2023-07-24T02:38:51;21.60;56.40
3348;DHT22;1687;49.540;8.574;2023-07-24T02:41:16;21.60;56.60
3348;DHT22;1687;49.540;8.574;2023-07-24T02:43:42;21.60;56.90
3348;DHT22;1687;49.540;8.574;2023-07-24T02:46:08;21.70;56.90
3348;DHT22;1687;49.540;8.574;2023-07-24T02:48:35;21.70;57.00
3348;DHT22;1687;49.540;8.574;2023-07-24T02:51:00;21.70;57.00
3348;DHT22;1687;49.540;8.574;2023-07-24T02:53:26;21.80;57.20
3348;DHT22;1687;49.540;8.574;2023-07-24T02:55:52;21.80;57.30
3348;DHT22;1687;49.540;8.574;2023-07-24T02:58:17;21.90;57.40
3348;DHT22;1687;49.540;8.574;2023-07-24T03:00:43;21.90;57.40
3348;DHT22;1687;49.540;8.574;2023-07-24T03:03:08;21.90;57.40
3348;DHT22;1687;49.540;8.574;2023-07-24T03:05:35;22.00;57.60
3348;DHT22;1687;49.540;8.574;2023-07-24T03:08:00;22.10;57.60
3348;DHT22;1687;49.540;8.574;2023-07-24T03:10:26;22.10;57.50
3348;DHT22;1687;49.540;8.574;2023-07-24T03:12:52;22.10;57.80
3348;DHT22;1687;49.540;8.574;2023-07-24T03:15:18;22.10;57.90
3348;DHT22;1687;49.540;8.574;2023-07-24T03:17:44;22.20;58.00
3348;DHT22;1687;49.540;8.574;2023-07-24T03:20:14;22.20;58.00
3348;DHT22;1687;49.540;8.574;2023-07-24T03:22:42;22.20;58.00
3348;DHT22;1687;49.540;8.574;2023-07-24T03:25:08;22.30;58.20
3348;DHT22;1687;49.540;8.574;2023-07-24T03:27:34;22.30;58.20
3348;DHT22;1687;49.540;8.574;2023-07-24T03:30:00;22.40;58.20
3348;DHT22;1687;49.540;8.574;2023-07-24T03:32:26;22.30;58.10
3348;DHT22;1687;49.540;8.574;2023-07-24T03:34:51;22.30;58.20
3348;DHT22;1687;49.540;8.574;2023-07-24T03:37:17;22.30;58.30
3348;DHT22;1687;49.540;8.574;2023-07-24T03:39:43;22.20;58.40
3348;DHT22;1687;49.540;8.574;2023-07-24T03:42:11;22.30;58.40
3348;DHT22;1687;49.540;8.574;2023-07-24T03:44:39;22.30;58.60
3348;DHT22;1687;49.540;8.574;2023-07-24T03:47:06;22.30;58.60
3348;DHT22;1687;49.540;8.574;2023-07-24T03:49:32;22.20;58.60
3348;DHT22;1687;49.540;8.574;2023-07-24T03:51:57;22.20;58.70
3348;DHT22;1687;49.540;8.574;2023-07-24T03:54:23;22.30;58.90
3348;DHT22;1687;49.540;8.574;2023-07-24T03:56:48;22.40;59.10
3348;DHT22;1687;49.540;8.574;2023-07-24T03:59:14;22.40;59.00
3348;DHT22;1687;49.540;8.574;2023-07-24T04:01:40;22.50;59.10
3348;DHT22;1687;49.540;8.574;2023-07-24T04:04:05;22.50;59.00
3348;DHT22;1687;49.540;8.574;2023-07-24T04:06:31;22.50;59.00
3348;DHT22;1687;49.540;8.574;2023-07-24T04:08:57;22.50;59.10
3348;DHT22;1687;49.540;8.574;2023-07-24T04:11:25;22.50;59.10
3348;DHT22;1687;49.540;8.574;2023-07-24T04:13:50;22.50;59.20
3348;DHT22;1687;49.540;8.574;2023-07-24T04:16:16;22.50;59.20
3348;DHT22;1687;49.540;8.574;2023-07-24T04:18:42;22.50;59.70
3348;DHT22;1687;49.540;8.574;2023-07-24T04:21:07;22.50;59.10
3348;DHT22;1687;49.540;8.574;2023-07-24T04:23:33;22.50;59.20
3348;DHT22;1687;49.540;8.574;2023-07-24T04:25:59;22.50;59.20
3348;DHT22;1687;49.540;8.574;2023-07-24T04:28:24;22.50;59.20
3348;DHT22;1687;49.540;8.574;2023-07-24T04:30:50;22.50;59.40
3348;DHT22;1687;49.540;8.574;2023-07-24T04:33:16;22.40;59.20
3348;DHT22;1687;49.540;8.574;2023-07-24T04:35:41;22.30;59.40
3348;DHT22;1687;49.540;8.574;2023-07-24T04:38:07;22.30;59.70
3348;DHT22;1687;49.540;8.574;2023-07-24T04:40:33;22.30;59.70
3348;DHT22;1687;49.540;8.574;2023-07-24T04:42:58;22.30;59.80
3348;DHT22;1687;49.540;8.574;2023-07-24T04:45:24;22.40;59.90
3348;DHT22;1687;49.540;8.574;2023-07-24T04:47:50;22.40;59.70
3348;DHT22;1687;49.540;8.574;2023-07-24T04:50:16;22.30;59.80
3348;DHT22;1687;49.540;8.574;2023-07-24T04:52:41;22.40;60.10
3348;DHT22;1687;49.540;8.574;2023-07-24T04:55:07;22.40;60.00
3348;DHT22;1687;49.540;8.574;2023-07-24T04:57:33;22.40;60.00
3348;DHT22;1687;49.540;8.574;2023-07-24T04:59:58;22.40;60.00
3348;DHT22;1687;49.540;8.574;2023-07-24T05:02:24;22.40;60.00
3348;DHT22;1687;49.540;8.574;2023-07-24T05:04:50;22.40;60.10
3348;DHT22;1687;49.540;8.574;2023-07-24T05:07:15;22.40;60.20
3348;DHT22;1687;49.540;8.574;2023-07-24T05:09:41;22.50;60.30
3348;DHT22;1687;49.540;8.574;2023-07-24T05:12:07;22.60;60.30
3348;DHT22;1687;49.540;8.574;2023-07-24T05:14:32;22.60;60.30
3348;DHT22;1687;49.540;8.574;2023-07-24T05:16:58;22.70;60.40
3348;DHT22;1687;49.540;8.574;2023-07-24T05:19:24;22.80;60.30
3348;DHT22;1687;49.540;8.574;2023-07-24T05:21:49;22.90;60.20
3348;DHT22;1687;49.540;8.574;2023-07-24T05:24:15;22.90;60.00
3348;DHT22;1687;49.540;8.574;2023-07-24T05:26:41;22.80;60.00
3348;DHT22;1687;49.540;8.574;2023-07-24T05:29:07;22.80;60.20
3348;DHT22;1687;49.540;8.574;2023-07-24T05:31:34;22.90;60.20
3348;DHT22;1687;49.540;8.574;2023-07-24T05:34:01;23.00;61.00
3348;DHT22;1687;49.540;8.574;2023-07-24T05:36:26;23.00;60.00
3348;DHT22;1687;49.540;8.574;2023-07-24T05:38:52;23.00;60.20
3348;DHT22;1687;49.540;8.574;2023-07-24T05:41:18;23.10;60.20
3348;DHT22;1687;49.540;8.574;2023-07-24T05:43:44;23.20;60.20
3348;DHT22;1687;49.540;8.574;2023-07-24T05:46:09;23.30;60.10
3348;DHT22;1687;49.540;8.574;2023-07-24T05:48:35;23.40;60.10
3348;DHT22;1687;49.540;8.574;2023-07-24T05:51:01;23.50;60.00
3348;DHT22;1687;49.540;8.574;2023-07-24T05:53:26;23.40;59.80
3348;DHT22;1687;49.540;8.574;2023-07-24T05:56:02;23.40;59.80
3348;DHT22;1687;49.540;8.574;2023-07-24T05:58:28;23.40;59.70
3348;DHT22;1687;49.540;8.574;2023-07-24T06:00:54;23.40;59.80
3348;DHT22;1687;49.540;8.574;2023-07-24T06:03:24;23.40;59.70
3348;DHT22;1687;49.540;8.574;2023-07-24T06:05:54;23.40;59.90
3348;DHT22;1687;49.540;8.574;2023-07-24T06:08:21;23.50;59.80
3348;DHT22;1687;49.540;8.574;2023-07-24T06:10:48;23.50;59.70
3348;DHT22;1687;49.540;8.574;2023-07-24T06:13:15;23.60;59.90
3348;DHT22;1687;49.540;8.574;2023-07-24T06:15:41;23.70;59.80
3348;DHT22;1687;49.540;8.574;2023-07-24T06:18:07;23.70;59.70
3348;DHT22;1687;49.540;8.574;2023-07-24T06:20:33;23.70;59.50
3348;DHT22;1687;49.540;8.574;2023-07-24T06:22:58;23.70;59.60
3348;DHT22;1687;49.540;8.574;2023-07-24T06:25:24;23.70;59.50
3348;DHT22;1687;49.540;8.574;2023-07-24T06:27:49;23.70;59.60
3348;DHT22;1687;49.540;8.574;2023-07-24T06:30:15;23.80;59.50
3348;DHT22;1687;49.540;8.574;2023-07-24T06:32:41;23.80;59.60
3348;DHT22;1687;49.540;8.574;2023-07-24T06:35:07;23.70;59.50
3348;DHT22;1687;49.540;8.574;2023-07-24T06:37:33;23.60;59.60
3348;DHT22;1687;49.540;8.574;2023-07-24T06:39:59;23.70;59.70
3348;DHT22;1687;49.540;8.574;2023-07-24T06:42:25;23.70;59.60
3348;DHT22;1687;49.540;8.574;2023-07-24T06:44:50;23.80;59.80
3348;DHT22;1687;49.540;8.574;2023-07-24T06:47:16;23.80;59.70
3348;DHT22;1687;49.540;8.574;2023-07-24T06:49:42;23.70;59.80
3348;DHT22;1687;49.540;8.574;2023-07-24T06:52:07;23.80;59.80
3348;DHT22;1687;49.540;8.574;2023-07-24T06:54:33;23.80;59.80
3348;DHT22;1687;49.540;8.574;2023-07-24T06:56:59;23.80;59.90
3348;DHT22;1687;49.540;8.574;2023-07-24T06:59:24;23.80;59.90
3348;DHT22;1687;49.540;8.574;2023-07-24T07:01:50;23.80;60.00
3348;DHT22;1687;49.540;8.574;2023-07-24T07:04:16;23.90;60.00
3348;DHT22;1687;49.540;8.574;2023-07-24T07:06:42;23.80;59.90
3348;DHT22;1687;49.540;8.574;2023-07-24T07:09:07;23.80;60.00
3348;DHT22;1687;49.540;8.574;2023-07-24T07:11:33;23.80;60.40
3348;DHT22;1687;49.540;8.574;2023-07-24T07:13:59;23.80;60.60
3348;DHT22;1687;49.540;8.574;2023-07-24T07:16:25;23.80;60.10
3348;DHT22;1687;49.540;8.574;2023-07-24T07:18:50;23.90;60.40
3348;DHT22;1687;49.540;8.574;2023-07-24T07:21:16;24.00;60.70
3348;DHT22;1687;49.540;8.574;2023-07-24T07:23:41;24.10;60.70
3348;DHT22;1687;49.540;8.574;2023-07-24T07:26:07;24.30;60.80
3348;DHT22;1687;49.540;8.574;2023-07-24T07:28:33;24.50;61.00
3348;DHT22;1687;49.540;8.574;2023-07-24T07:30:58;24.80;61.10
3348;DHT22;1687;49.540;8.574;2023-07-24T07:33:24;25.20;61.10
3348;DHT22;1687;49.540;8.574;2023-07-24T07:35:50;25.30;60.70
3348;DHT22;1687;49.540;8.574;2023-07-24T07:38:16;25.40;60.30
3348;DHT22;1687;49.540;8.574;2023-07-24T07:40:41;25.40;60.10
3348;DHT22;1687;49.540;8.574;2023-07-24T07:43:07;25.40;60.00
3348;DHT22;1687;49.540;8.574;2023-07-24T07:45:33;25.40;59.80
3348;DHT22;1687;49.540;8.574;2023-07-24T07:47:59;25.30;59.80
3348;DHT22;1687;49.540;8.574;2023-07-24T07:50:24;25.40;59.70
3348;DHT22;1687;49.540;8.574;2023-07-24T07:52:51;25.50;59.90
3348;DHT22;1687;49.540;8.574;2023-07-24T07:55:18;25.60;59.80
3348;DHT22;1687;49.540;8.574;2023-07-24T07:57:44;25.60;59.60
3348;DHT22;1687;49.540;8.574;2023-07-24T08:00:10;25.60;59.40
3348;DHT22;1687;49.540;8.574;2023-07-24T08:02:36;25.60;59.50
3348;DHT22;1687;49.540;8.574;2023-07-24T08:05:09;25.50;59.30
3348;DHT22;1687;49.540;8.574;2023-07-24T08:07:35;25.30;59.40
3348;DHT22;1687;49.540;8.574;2023-07-24T08:10:02;25.30;59.50
3348;DHT22;1687;49.540;8.574;2023-07-24T08:12:28;25.20;59.60
3348;DHT22;1687;49.540;8.574;2023-07-24T08:14:55;25.30;59.70
3348;DHT22;1687;49.540;8.574;2023-07-24T08:17:21;25.30;59.70
3348;DHT22;1687;49.540;8.574;2023-07-24T08:19:47;25.40;59.80
3348;DHT22;1687;49.540;8.574;2023-07-24T08:22:12;25.30;59.60
3348;DHT22;1687;49.540;8.574;2023-07-24T08:24:38;25.20;59.80
3348;DHT22;1687;49.540;8.574;2023-07-24T08:27:04;25.20;59.90
3348;DHT22;1687;49.540;8.574;2023-07-24T08:29:30;25.20;59.90
3348;DHT22;1687;49.540;8.574;2023-07-24T08:31:55;25.10;60.20
3348;DHT22;1687;49.540;8.574;2023-07-24T08:34:21;25.20;60.50
3348;DHT22;1687;49.540;8.574;2023-07-24T08:36:47;25.30;60.40
3348;DHT22;1687;49.540;8.574;2023-07-24T08:39:12;25.40;60.50
3348;DHT22;1687;49.540;8.574;2023-07-24T08:41:38;25.50;60.50
3348;DHT22;1687;49.540;8.574;2023-07-24T08:44:06;25.70;60.50
3348;DHT22;1687;49.540;8.574;2023-07-24T08:46:37;25.80;60.40
3348;DHT22;1687;49.540;8.574;2023-07-24T08:49:04;26.00;60.40
3348;DHT22;1687;49.540;8.574;2023-07-24T08:51:30;26.10;60.40
3348;DHT22;1687;49.540;8.574;2023-07-24T08:53:57;26.10;60.10
3348;DHT22;1687;49.540;8.574;2023-07-24T08:56:23;26.30;60.20
3348;DHT22;1687;49.540;8.574;2023-07-24T08:58:49;26.40;60.00
3348;DHT22;1687;49.540;8.574;2023-07-24T09:01:15;26.60;60.40
3348;DHT22;1687;49.540;8.574;2023-07-24T09:03:40;26.70;59.90
3348;DHT22;1687;49.540;8.574;2023-07-24T09:06:06;26.70;59.50
3348;DHT22;1687;49.540;8.574;2023-07-24T09:08:38;26.40;59.40
3348;DHT22;1687;49.540;8.574;2023-07-24T09:11:06;26.40;59.60
3348;DHT22;1687;49.540;8.574;2023-07-24T09:13:33;26.40;59.40
3348;DHT22;1687;49.540;8.574;2023-07-24T09:16:01;26.40;59.50
3348;DHT22;1687;49.540;8.574;2023-07-24T09:18:26;26.40;59.60
3348;DHT22;1687;49.540;8.574;2023-07-24T09:20:52;26.50;59.70
3348;DHT22;1687;49.540;8.574;2023-07-24T09:23:26;26.50;59.60
3348;DHT22;1687;49.540;8.574;2023-07-24T09:25:55;26.50;59.50
3348;DHT22;1687;49.540;8.574;2023-07-24T09:28:21;26.40;59.40
3348;DHT22;1687;49.540;8.574;2023-07-24T09:30:57;26.40;59.50
3348;DHT22;1687;49.540;8.574;2023-07-24T09:36:03;26.10;59.30
3348;DHT22;1687;49.540;8.574;2023-07-24T09:38:30;26.00;59.40
3348;DHT22;1687;49.540;8.574;2023-07-24T09:40:56;26.00;59.70
3348;DHT22;1687;49.540;8.574;2023-07-24T09:43:24;25.80;59.50
3348;DHT22;1687;49.540;8.574;2023-07-24T09:45:52;25.70;59.70
3348;DHT22;1687;49.540;8.574;2023-07-24T09:48:19;25.60;59.80
3348;DHT22;1687;49.540;8.574;2023-07-24T09:50:48;25.40;60.00
3348;DHT22;1687;49.540;8.574;2023-07-24T09:53:22;25.30;60.10
3348;DHT22;1687;49.540;8.574;2023-07-24T09:55:56;25.10;60.40
3348;DHT22;1687;49.540;8.574;2023-07-24T09:58:23;25.10;60.50
3348;DHT22;1687;49.540;8.574;2023-07-24T10:00:51;25.00;60.80
3348;DHT22;1687;49.540;8.574;2023-07-24T10:03:22;25.10;61.00
3348;DHT22;1687;49.540;8.574;2023-07-24T10:05:48;25.20;61.30
3348;DHT22;1687;49.540;8.574;2023-07-24T10:08:18;25.30;61.20
3348;DHT22;1687;49.540;8.574;2023-07-24T10:10:44;25.30;61.20
3348;DHT22;1687;49.540;8.574;2023-07-24T10:13:12;25.40;61.30
3348;DHT22;1687;49.540;8.574;2023-07-24T10:15:41;25.40;61.50
3348;DHT22;1687;49.540;8.574;2023-07-24T10:18:09;25.30;61.10
3348;DHT22;1687;49.540;8.574;2023-07-24T10:20:42;25.20;61.40
3348;DHT22;1687;49.540;8.574;2023-07-24T10:23:16;25.20;61.60
3348;DHT22;1687;49.540;8.574;2023-07-24T10:25:44;25.10;61.60
3348;DHT22;1687;49.540;8.574;2023-07-24T10:28:11;25.10;62.00
3348;DHT22;1687;49.540;8.574;2023-07-24T10:30:39;25.20;62.10
3348;DHT22;1687;49.540;8.574;2023-07-24T10:33:07;25.30;62.00
3348;DHT22;1687;49.540;8.574;2023-07-24T10:35:46;25.30;62.30
3348;DHT22;1687;49.540;8.574;2023-07-24T10:38:17;25.40;62.30
3348;DHT22;1687;49.540;8.574;2023-07-24T10:40:45;25.50;62.10
3348;DHT22;1687;49.540;8.574;2023-07-24T10:43:19;25.60;62.30
3348;DHT22;1687;49.540;8.574;2023-07-24T10:45:53;25.70;62.30
3348;DHT22;1687;49.540;8.574;2023-07-24T10:48:21;25.80;62.10
3348;DHT22;1687;49.540;8.574;2023-07-24T10:50:50;25.90;62.10
3348;DHT22;1687;49.540;8.574;2023-07-24T10:53:18;26.10;62.00
3348;DHT22;1687;49.540;8.574;2023-07-24T10:55:47;26.10;62.00
3348;DHT22;1687;49.540;8.574;2023-07-24T10:58:13;26.20;62.00
3348;DHT22;1687;49.540;8.574;2023-07-24T11:00:40;26.20;61.60
3348;DHT22;1687;49.540;8.574;2023-07-24T11:03:10;26.20;61.60
3348;DHT22;1687;49.540;8.574;2023-07-24T11:05:40;26.30;61.70
3348;DHT22;1687;49.540;8.574;2023-07-24T11:08:15;26.40;61.90
3348;DHT22;1687;49.540;8.574;2023-07-24T11:10:52;26.30;61.40
3348;DHT22;1687;49.540;8.574;2023-07-24T11:13:20;26.20;61.30
3348;DHT22;1687;49.540;8.574;2023-07-24T11:15:49;26.20;61.60
3348;DHT22;1687;49.540;8.574;2023-07-24T11:18:15;26.20;62.00
3348;DHT22;1687;49.540;8.574;2023-07-24T11:20:53;26.40;61.80
3348;DHT22;1687;49.540;8.574;2023-07-24T11:23:20;26.50;61.50
3348;DHT22;1687;49.540;8.574;2023-07-24T11:25:46;26.50;61.60
3348;DHT22;1687;49.540;8.574;2023-07-24T11:28:14;26.40;61.60
3348;DHT22;1687;49.540;8.574;2023-07-24T11:30:40;26.50;61.50
3348;DHT22;1687;49.540;8.574;2023-07-24T11:33:08;26.70;61.90
3348;DHT22;1687;49.540;8.574;2023-07-24T11:35:35;26.80;61.40
3348;DHT22;1687;49.540;8.574;2023-07-24T11:38:04;26.90;61.30
3348;DHT22;1687;49.540;8.574;2023-07-24T11:40:43;27.00;61.60
3348;DHT22;1687;49.540;8.574;2023-07-24T11:43:20;27.10;61.20
3348;DHT22;1687;49.540;8.574;2023-07-24T11:45:48;27.20;61.30
3348;DHT22;1687;49.540;8.574;2023-07-24T11:48:17;27.00;61.20
3348;DHT22;1687;49.540;8.574;2023-07-24T11:50:47;26.90;61.30
3348;DHT22;1687;49.540;8.574;2023-07-24T11:55:50;26.60;61.00
3348;DHT22;1687;49.540;8.574;2023-07-24T11:58:17;26.40;61.50
3348;DHT22;1687;49.540;8.574;2023-07-24T12:00:45;26.30;61.80
3348;DHT22;1687;49.540;8.574;2023-07-24T12:03:12;26.40;62.50
3348;DHT22;1687;49.540;8.574;2023-07-24T12:05:43;26.60;63.00
3348;DHT22;1687;49.540;8.574;2023-07-24T12:08:10;26.90;63.20
3348;DHT22;1687;49.540;8.574;2023-07-24T12:10:37;27.10;63.30
3348;DHT22;1687;49.540;8.574;2023-07-24T12:13:04;27.40;63.20
3348;DHT22;1687;49.540;8.574;2023-07-24T12:15:30;27.40;62.30
3348;DHT22;1687;49.540;8.574;2023-07-24T12:17:56;27.30;62.20
3348;DHT22;1687;49.540;8.574;2023-07-24T12:20:23;27.10;62.20
3348;DHT22;1687;49.540;8.574;2023-07-24T12:22:49;26.90;62.00
3348;DHT22;1687;49.540;8.574;2023-07-24T12:25:15;26.80;62.30
3348;DHT22;1687;49.540;8.574;2023-07-24T12:27:41;26.80;62.10
3348;DHT22;1687;49.540;8.574;2023-07-24T12:30:08;26.70;62.10
3348;DHT22;1687;49.540;8.574;2023-07-24T12:32:34;26.70;62.40
3348;DHT22;1687;49.540;8.574;2023-07-24T12:35:00;26.70;62.20
3348;DHT22;1687;49.540;8.574;2023-07-24T12:37:26;26.80;62.40
3348;DHT22;1687;49.540;8.574;2023-07-24T12:39:52;26.90;62.40
3348;DHT22;1687;49.540;8.574;2023-07-24T12:42:17;27.10;62.50
3348;DHT22;1687;49.540;8.574;2023-07-24T12:44:43;27.30;62.40
3348;DHT22;1687;49.540;8.574;2023-07-24T12:47:10;27.30;62.10
3348;DHT22;1687;49.540;8.574;2023-07-24T12:49:37;27.30;61.80
3348;DHT22;1687;49.540;8.574;2023-07-24T12:52:03;27.30;61.90
3348;DHT22;1687;49.540;8.574;2023-07-24T12:54:29;27.50;62.10
3348;DHT22;1687;49.540;8.574;2023-07-24T12:56:55;27.60;62.00
3348;DHT22;1687;49.540;8.574;2023-07-24T12:59:20;27.70;62.10
3348;DHT22;1687;49.540;8.574;2023-07-24T13:01:46;27.80;61.60
3348;DHT22;1687;49.540;8.574;2023-07-24T13:04:12;27.90;61.80
3348;DHT22;1687;49.540;8.574;2023-07-24T13:06:38;27.80;61.10
3348;DHT22;1687;49.540;8.574;2023-07-24T13:09:05;27.80;61.20
3348;DHT22;1687;49.540;8.574;2023-07-24T13:11:31;27.70;60.90
3348;DHT22;1687;49.540;8.574;2023-07-24T13:13:57;27.60;61.00
3348;DHT22;1687;49.540;8.574;2023-07-24T13:16:23;27.50;61.00
3348;DHT22;1687;49.540;8.574;2023-07-24T13:18:49;27.50;61.10
3348;DHT22;1687;49.540;8.574;2023-07-24T13:21:15;27.70;61.00
3348;DHT22;1687;49.540;8.574;2023-07-24T13:23:41;27.80;61.00
3348;DHT22;1687;49.540;8.574;2023-07-24T13:26:07;28.00;60.90
3348;DHT22;1687;49.540;8.574;2023-07-24T13:28:35;28.00;60.50
3348;DHT22;1687;49.540;8.574;2023-07-24T13:31:20;28.20;60.70
3348;DHT22;1687;49.540;8.574;2023-07-24T13:33:46;28.40;60.00
3348;DHT22;1687;49.540;8.574;2023-07-24T13:36:12;28.60;59.70
3348;DHT22;1687;49.540;8.574;2023-07-24T13:38:39;28.90;60.00
3348;DHT22;1687;49.540;8.574;2023-07-24T13:41:04;28.90;59.50
3348;DHT22;1687;49.540;8.574;2023-07-24T13:43:33;29.30;60.00
3348;DHT22;1687;49.540;8.574;2023-07-24T13:45:59;29.70;59.40
3348;DHT22;1687;49.540;8.574;2023-07-24T13:48:26;30.10;59.00
3348;DHT22;1687;49.540;8.574;2023-07-24T13:50:52;30.90;58.90
3348;DHT22;1687;49.540;8.574;2023-07-24T13:53:18;30.70;57.80
3348;DHT22;1687;49.540;8.574;2023-07-24T13:55:44;30.10;57.20
3348;DHT22;1687;49.540;8.574;2023-07-24T13:58:10;29.40;57.20
3348;DHT22;1687;49.540;8.574;2023-07-24T14:00:35;28.90;57.40
3348;DHT22;1687;49.540;8.574;2023-07-24T14:03:01;28.40;57.70
3348;DHT22;1687;49.540;8.574;2023-07-24T14:05:27;28.00;57.90
3348;DHT22;1687;49.540;8.574;2023-07-24T14:07:53;27.70;58.60
3348;DHT22;1687;49.540;8.574;2023-07-24T14:10:19;27.40;58.80
3348;DHT22;1687;49.540;8.574;2023-07-24T14:12:45;26.90;59.10
3348;DHT22;1687;49.540;8.574;2023-07-24T14:15:11;26.40;59.80
3348;DHT22;1687;49.540;8.574;2023-07-24T14:17:37;25.90;60.40
3348;DHT22;1687;49.540;8.574;2023-07-24T14:20:03;25.40;61.50
3348;DHT22;1687;49.540;8.574;2023-07-24T14:22:30;24.40;61.30
3348;DHT22;1687;49.540;8.574;2023-07-24T14:24:55;23.70;63.10
3348;DHT22;1687;49.540;8.574;2023-07-24T14:27:21;23.10;64.20
3348;DHT22;1687;49.540;8.574;2023-07-24T14:29:46;22.70;66.00
3348;DHT22;1687;49.540;8.574;2023-07-24T14:32:12;22.30;67.10
3348;DHT22;1687;49.540;8.574;2023-07-24T14:34:38;22.10;68.50
3348;DHT22;1687;49.540;8.574;2023-07-24T14:37:04;22.00;69.40
3348;DHT22;1687;49.540;8.574;2023-07-24T14:39:30;22.00;70.20
3348;DHT22;1687;49.540;8.574;2023-07-24T14:41:56;21.90;70.80
3348;DHT22;1687;49.540;8.574;2023-07-24T14:44:21;22.10;71.90
3348;DHT22;1687;49.540;8.574;2023-07-24T14:46:47;22.50;73.20
3348;DHT22;1687;49.540;8.574;2023-07-24T14:49:12;22.70;73.20
3348;DHT22;1687;49.540;8.574;2023-07-24T14:51:38;24.10;76.80
3348;DHT22;1687;49.540;8.574;2023-07-24T14:54:04;25.30;76.20
3348;DHT22;1687;49.540;8.574;2023-07-24T14:56:29;26.00;77.00
3348;DHT22;1687;49.540;8.574;2023-07-24T14:58:55;26.60;77.20
3348;DHT22;1687;49.540;8.574;2023-07-24T15:01:21;26.30;75.90
3348;DHT22;1687;49.540;8.574;2023-07-24T15:03:46;26.00;76.10
3348;DHT22;1687;49.540;8.574;2023-07-24T15:06:12;25.80;76.60
3348;DHT22;1687;49.540;8.574;2023-07-24T15:08:38;25.70;76.90
3348;DHT22;1687;49.540;8.574;2023-07-24T15:11:03;25.60;76.60
3348;DHT22;1687;49.540;8.574;2023-07-24T15:13:29;25.20;75.90
3348;DHT22;1687;49.540;8.574;2023-07-24T15:15:55;24.90;76.30
3348;DHT22;1687;49.540;8.574;2023-07-24T15:18:21;25.00;77.00
3348;DHT22;1687;49.540;8.574;2023-07-24T15:20:46;25.10;77.40
3348;DHT22;1687;49.540;8.574;2023-07-24T15:23:12;25.80;78.10
3348;DHT22;1687;49.540;8.574;2023-07-24T15:25:38;27.20;79.10
3348;DHT22;1687;49.540;8.574;2023-07-24T15:28:04;29.30;78.60
3348;DHT22;1687;49.540;8.574;2023-07-24T15:30:31;30.60;75.80
3348;DHT22;1687;49.540;8.574;2023-07-24T15:32:57;31.80;74.70
3348;DHT22;1687;49.540;8.574;2023-07-24T15:35:22;32.70;73.00
3348;DHT22;1687;49.540;8.574;2023-07-24T15:37:48;33.40;68.90
3348;DHT22;1687;49.540;8.574;2023-07-24T15:40:14;32.90;68.00
3348;DHT22;1687;49.540;8.574;2023-07-24T15:42:40;33.60;67.90
3348;DHT22;1687;49.540;8.574;2023-07-24T15:45:06;32.70;64.60
3348;DHT22;1687;49.540;8.574;2023-07-24T15:47:32;31.10;62.80
3348;DHT22;1687;49.540;8.574;2023-07-24T15:49:58;29.60;63.60
3348;DHT22;1687;49.540;8.574;2023-07-24T15:52:26;28.40;64.00
3348;DHT22;1687;49.540;8.574;2023-07-24T15:54:52;27.70;65.10
3348;DHT22;1687;49.540;8.574;2023-07-24T15:57:17;27.20;65.60
3348;DHT22;1687;49.540;8.574;2023-07-24T15:59:43;27.10;66.40
3348;DHT22;1687;49.540;8.574;2023-07-24T16:02:09;26.90;66.70
3348;DHT22;1687;49.540;8.574;2023-07-24T16:04:35;26.70;66.80
3348;DHT22;1687;49.540;8.574;2023-07-24T16:07:00;26.50;67.40